createdAt,value
2019-02-15T00:00:09.188Z,407.62
2019-02-15T00:01:09.150Z,407.68
2019-02-15T00:02:09.132Z,407.91
2019-02-15T00:03:09.149Z,408.90
2019-02-15T00:04:09.110Z,407.81
2019-02-15T00:05:09.240Z,407.66
2019-02-15T00:06:09.088Z,408.73
2019-02-15T00:07:09.083Z,408.26
2019-02-15T00:08:09.084Z,408.61
2019-02-15T00:09:09.059Z,408.62
2019-02-15T00:10:09.059Z,408.63
2019-02-15T00:11:09.030Z,408.27
2019-02-15T00:12:09.024Z,408.58
2019-02-15T00:13:13.654Z,408.55
2019-02-15T00:14:09.000Z,408.56
2019-02-15T00:15:09.010Z,409.16
2019-02-15T00:16:08.973Z,407.29
2019-02-15T00:17:08.971Z,407.75
2019-02-15T00:18:08.962Z,407.73
2019-02-15T00:19:08.954Z,407.99
2019-02-15T00:20:08.943Z,407.52
2019-02-15T00:21:08.965Z,407.78
2019-02-15T00:22:08.911Z,407.58
2019-02-15T00:23:08.903Z,407.58
2019-02-15T00:24:08.898Z,407.69
2019-02-15T00:25:08.882Z,408.18
2019-02-15T00:26:08.872Z,408.09
2019-02-15T00:27:08.875Z,408.74
2019-02-15T00:28:08.836Z,406.93
2019-02-15T00:29:08.835Z,407.41
2019-02-15T00:30:08.830Z,407.92
2019-02-15T00:31:08.820Z,408.02
2019-02-15T00:32:08.837Z,407.82
2019-02-15T00:33:08.796Z,407.67
2019-02-15T00:34:08.783Z,407.60
2019-02-15T00:35:08.768Z,407.52
2019-02-15T00:36:08.751Z,407.68
2019-02-15T00:37:08.744Z,407.17
2019-02-15T00:38:08.771Z,407.24
2019-02-15T00:39:08.733Z,407.96
2019-02-15T00:40:08.720Z,408.80
2019-02-15T00:41:08.711Z,407.70
2019-02-15T00:42:08.688Z,408.20
2019-02-15T00:43:08.680Z,407.88
2019-02-15T00:44:08.699Z,407.61
2019-02-15T00:45:08.674Z,408.05
2019-02-15T00:46:08.647Z,407.30
2019-02-15T00:47:08.631Z,407.67
2019-02-15T00:48:08.625Z,407.93
2019-02-15T00:49:08.644Z,407.70
2019-02-15T00:50:08.613Z,407.41
2019-02-15T00:51:08.660Z,407.31
2019-02-15T00:52:08.597Z,407.00
2019-02-15T00:53:08.594Z,407.54
2019-02-15T00:54:08.560Z,407.48
2019-02-15T00:55:08.573Z,407.29
2019-02-15T00:56:08.546Z,407.15
2019-02-15T00:57:08.531Z,408.03
2019-02-15T00:58:08.529Z,408.22
2019-02-15T00:59:08.519Z,407.67
2019-02-15T01:00:08.559Z,407.39
2019-02-15T01:01:08.489Z,407.98
2019-02-15T01:02:08.487Z,407.69
2019-02-15T01:03:08.470Z,408.02
2019-02-15T01:04:08.458Z,407.44
2019-02-15T01:05:08.445Z,408.01
2019-02-15T01:06:08.443Z,406.92
2019-02-15T01:07:08.415Z,407.07
2019-02-15T01:08:08.398Z,407.55
2019-02-15T01:09:08.449Z,407.53
2019-02-15T01:10:08.402Z,407.93
2019-02-15T01:11:08.401Z,407.91
2019-02-15T01:12:08.382Z,407.45
2019-02-15T01:13:08.369Z,407.57
2019-02-15T01:14:08.346Z,408.07
2019-02-15T01:15:08.333Z,407.61
2019-02-15T01:16:08.365Z,408.67
2019-02-15T01:17:08.321Z,407.76
2019-02-15T01:18:08.299Z,407.40
2019-02-15T01:19:08.288Z,407.23
2019-02-15T01:20:08.269Z,407.56
2019-02-15T01:21:08.259Z,406.69
2019-02-15T01:22:08.285Z,407.43
2019-02-15T01:23:08.249Z,407.59
2019-02-15T01:24:08.245Z,406.88
2019-02-15T01:25:08.234Z,407.46
2019-02-15T01:26:08.210Z,407.61
2019-02-15T01:27:08.222Z,407.68
2019-02-15T01:28:08.188Z,406.79
2019-02-15T01:29:08.183Z,407.54
2019-02-15T01:30:08.180Z,407.00
2019-02-15T01:31:08.173Z,407.20
2019-02-15T01:32:08.169Z,407.46
2019-02-15T01:33:08.145Z,407.64
2019-02-15T01:34:08.133Z,407.73
2019-02-15T01:35:08.140Z,407.44
2019-02-15T01:36:08.115Z,407.36
2019-02-15T01:37:08.129Z,407.89
2019-02-15T01:38:08.084Z,407.21
2019-02-15T01:39:08.069Z,407.62
2019-02-15T01:40:08.057Z,407.90
2019-02-15T01:41:08.050Z,407.98
2019-02-15T01:42:08.054Z,406.90
2019-02-15T01:43:08.059Z,407.04
2019-02-15T01:44:08.025Z,407.40
2019-02-15T01:45:08.015Z,406.47
2019-02-15T01:46:07.993Z,407.01
2019-02-15T01:47:08.001Z,407.34
2019-02-15T01:48:08.014Z,407.10
2019-02-15T01:49:07.975Z,407.21
2019-02-15T01:50:07.959Z,407.01
2019-02-15T01:51:07.942Z,407.05
2019-02-15T01:52:07.937Z,407.16
2019-02-15T01:53:07.917Z,407.57
2019-02-15T01:54:07.934Z,407.29
2019-02-15T01:55:07.910Z,406.53
2019-02-15T01:56:07.905Z,406.98
2019-02-15T01:57:07.886Z,407.12
2019-02-15T01:58:07.868Z,406.70
2019-02-15T01:59:07.875Z,406.93
2019-02-15T02:00:07.845Z,406.80
2019-02-15T02:01:07.829Z,406.88
2019-02-15T02:02:07.837Z,407.48
2019-02-15T02:03:07.819Z,407.77
2019-02-15T02:04:07.846Z,407.58
2019-02-15T02:05:07.784Z,407.29
2019-02-15T02:06:07.788Z,407.46
2019-02-15T02:07:07.775Z,407.50
2019-02-15T02:08:07.765Z,407.42
2019-02-15T02:09:07.757Z,408.29
2019-02-15T02:10:07.758Z,407.88
2019-02-15T02:11:07.720Z,408.00
2019-02-15T02:12:07.714Z,407.68
2019-02-15T02:13:07.699Z,408.18
2019-02-15T02:14:07.702Z,407.52
2019-02-15T02:15:07.706Z,408.73
2019-02-15T02:16:07.676Z,407.28
2019-02-15T02:17:07.670Z,407.63
2019-02-15T02:18:07.645Z,407.78
2019-02-15T02:19:07.646Z,406.97
2019-02-15T02:20:07.671Z,406.94
2019-02-15T02:21:07.622Z,407.57
2019-02-15T02:22:07.610Z,407.02
2019-02-15T02:23:07.623Z,407.25
2019-02-15T02:24:07.583Z,406.81
2019-02-15T02:25:07.571Z,406.89
2019-02-15T02:26:07.615Z,406.57
2019-02-15T02:27:07.554Z,407.57
2019-02-15T02:28:07.555Z,407.50
2019-02-15T02:29:07.540Z,407.34
2019-02-15T02:30:07.522Z,407.23
2019-02-15T02:31:07.539Z,406.77
2019-02-15T02:32:07.500Z,407.14
2019-02-15T02:33:07.480Z,407.77
2019-02-15T02:34:07.490Z,408.73
2019-02-15T02:35:07.469Z,407.84
2019-02-15T02:36:07.457Z,407.33
2019-02-15T02:37:07.461Z,406.79
2019-02-15T02:38:07.448Z,406.87
2019-02-15T02:39:07.436Z,407.49
2019-02-15T02:40:07.420Z,407.42
2019-02-15T02:41:07.422Z,407.19
2019-02-15T02:42:07.413Z,406.74
2019-02-15T02:43:07.381Z,406.86
2019-02-15T02:44:07.365Z,407.27
2019-02-15T02:45:07.358Z,407.09
2019-02-15T02:46:07.355Z,407.94
2019-02-15T02:47:07.356Z,406.67
2019-02-15T02:48:07.363Z,406.68
2019-02-15T02:49:07.318Z,407.19
2019-02-15T02:50:07.300Z,406.75
2019-02-15T02:51:07.292Z,407.17
2019-02-15T02:52:07.289Z,407.32
2019-02-15T02:53:07.275Z,407.18
2019-02-15T02:54:07.266Z,406.98
2019-02-15T02:55:07.251Z,407.22
2019-02-15T02:56:07.241Z,407.24
2019-02-15T02:57:07.226Z,406.98
2019-02-15T02:58:07.215Z,406.67
2019-02-15T02:59:07.230Z,406.64
2019-02-15T03:00:07.205Z,406.50
2019-02-15T03:01:07.227Z,407.52
2019-02-15T03:02:07.171Z,406.89
2019-02-15T03:03:07.179Z,406.78
2019-02-15T03:04:07.172Z,406.59
2019-02-15T03:05:07.140Z,406.39
2019-02-15T03:06:07.190Z,406.88
2019-02-15T03:07:07.122Z,406.63
2019-02-15T03:08:07.110Z,407.18
2019-02-15T03:09:07.125Z,406.47
2019-02-15T03:10:07.096Z,407.39
2019-02-15T03:11:07.081Z,407.62
2019-02-15T03:12:07.077Z,406.52
2019-02-15T03:13:07.059Z,407.18
2019-02-15T03:14:11.363Z,406.54
2019-02-15T03:15:07.065Z,407.54
2019-02-15T03:16:07.017Z,406.92
2019-02-15T03:17:07.006Z,407.19
2019-02-15T03:18:07.001Z,406.93
2019-02-15T03:19:07.004Z,407.24
2019-02-15T03:20:07.006Z,406.54
2019-02-15T03:21:06.974Z,407.41
2019-02-15T03:22:06.954Z,406.72
2019-02-15T03:23:06.949Z,407.33
2019-02-15T03:24:06.952Z,406.94
2019-02-15T03:25:06.974Z,406.32
2019-02-15T03:26:06.935Z,407.36
2019-02-15T03:27:06.905Z,407.89
2019-02-15T03:28:06.899Z,407.29
2019-02-15T03:29:06.876Z,407.56
2019-02-15T03:30:06.875Z,407.94
2019-02-15T03:31:06.885Z,406.70
2019-02-15T03:32:06.877Z,408.08
2019-02-15T03:33:06.898Z,407.72
2019-02-15T03:34:06.844Z,408.06
2019-02-15T03:35:06.826Z,406.85
2019-02-15T03:36:06.826Z,407.65
2019-02-15T03:37:06.813Z,407.73
2019-02-15T03:38:06.786Z,407.42
2019-02-15T03:39:06.799Z,407.72
2019-02-15T03:40:06.779Z,407.60
2019-02-15T03:41:06.759Z,407.96
2019-02-15T03:42:06.765Z,407.30
2019-02-15T03:43:06.723Z,407.70
2019-02-15T03:44:06.717Z,407.21
2019-02-15T03:45:06.819Z,407.81
2019-02-15T03:46:06.698Z,407.87
2019-02-15T03:47:06.679Z,406.42
2019-02-15T03:48:06.699Z,406.70
2019-02-15T03:49:06.657Z,406.81
2019-02-15T03:50:06.657Z,406.26
2019-02-15T03:51:06.649Z,407.08
2019-02-15T03:52:06.676Z,407.50
2019-02-15T03:53:06.620Z,406.90
2019-02-15T03:54:06.601Z,407.94
2019-02-15T03:55:06.601Z,406.82
2019-02-15T03:56:06.589Z,406.87
2019-02-15T03:57:06.592Z,407.43
2019-02-15T03:58:06.591Z,406.87
2019-02-15T03:59:06.549Z,407.22
2019-02-15T04:00:06.542Z,407.82
2019-02-15T04:01:06.529Z,406.97
2019-02-15T04:02:06.531Z,407.77
2019-02-15T04:03:06.538Z,407.78
2019-02-15T04:04:06.510Z,406.46
2019-02-15T04:05:06.496Z,407.73
2019-02-15T04:06:06.472Z,407.10
2019-02-15T04:07:06.461Z,406.96
2019-02-15T04:08:06.486Z,406.99
2019-02-15T04:09:06.448Z,406.73
2019-02-15T04:10:06.445Z,406.41
2019-02-15T04:11:06.448Z,406.83
2019-02-15T04:12:06.410Z,406.39
2019-02-15T04:13:06.397Z,407.43
2019-02-15T04:14:06.412Z,406.82
2019-02-15T04:15:06.387Z,407.12
2019-02-15T04:16:06.369Z,407.62
2019-02-15T04:17:06.374Z,407.41
2019-02-15T04:18:06.345Z,406.85
2019-02-15T04:19:06.363Z,406.46
2019-02-15T04:20:06.319Z,406.98
2019-02-15T04:21:06.314Z,407.04
2019-02-15T04:22:06.306Z,406.90
2019-02-15T04:23:06.306Z,406.65
2019-02-15T04:24:06.286Z,406.55
2019-02-15T04:25:06.309Z,407.30
2019-02-15T04:26:06.326Z,407.07
2019-02-15T04:27:06.259Z,407.24
2019-02-15T04:28:06.247Z,406.45
2019-02-15T04:29:06.242Z,406.40
2019-02-15T04:30:06.229Z,406.86
2019-02-15T04:31:06.207Z,406.23
2019-02-15T04:32:06.213Z,406.04
2019-02-15T04:33:06.183Z,407.21
2019-02-15T04:34:06.180Z,406.84
2019-02-15T04:35:06.193Z,406.63
2019-02-15T04:36:06.159Z,407.15
2019-02-15T04:37:06.143Z,406.90
2019-02-15T04:38:06.128Z,407.14
2019-02-15T04:39:06.110Z,406.18
2019-02-15T04:40:06.121Z,407.52
2019-02-15T04:41:06.100Z,406.92
2019-02-15T04:42:06.098Z,407.02
2019-02-15T04:43:06.098Z,407.32
2019-02-15T04:44:06.067Z,406.96
2019-02-15T04:45:06.085Z,407.13
2019-02-15T04:46:06.051Z,407.20
2019-02-15T04:47:06.043Z,406.84
2019-02-15T04:48:06.053Z,407.61
2019-02-15T04:49:06.019Z,407.31
2019-02-15T04:50:06.015Z,406.92
2019-02-15T04:51:05.985Z,407.62
2019-02-15T04:52:05.983Z,407.11
2019-02-15T04:53:05.966Z,406.51
2019-02-15T04:54:05.964Z,406.49
2019-02-15T04:55:05.977Z,406.57
2019-02-15T04:56:05.937Z,407.52
2019-02-15T04:57:05.933Z,407.59
2019-02-15T04:58:05.912Z,407.20
2019-02-15T04:59:05.935Z,407.32
2019-02-15T05:00:05.938Z,406.85
2019-02-15T05:01:05.890Z,407.01
2019-02-15T05:02:05.865Z,407.04
2019-02-15T05:03:05.957Z,407.45
2019-02-15T05:04:05.860Z,407.42
2019-02-15T05:05:05.835Z,407.13
2019-02-15T05:06:05.854Z,406.96
2019-02-15T05:07:05.821Z,407.19
2019-02-15T05:08:05.806Z,406.47
2019-02-15T05:09:05.797Z,407.62
2019-02-15T05:10:05.777Z,407.26
2019-02-15T05:11:05.797Z,407.70
2019-02-15T05:12:05.760Z,407.42
2019-02-15T05:13:05.744Z,407.91
2019-02-15T05:14:05.746Z,406.96
2019-02-15T05:15:05.741Z,407.84
2019-02-15T05:16:05.713Z,406.62
2019-02-15T05:17:05.729Z,407.82
2019-02-15T05:18:05.703Z,407.90
2019-02-15T05:19:05.688Z,407.87
2019-02-15T05:20:05.677Z,407.88
2019-02-15T05:21:05.684Z,408.49
2019-02-15T05:22:05.669Z,407.94
2019-02-15T05:23:05.649Z,407.34
2019-02-15T05:24:05.624Z,407.78
2019-02-15T05:25:05.614Z,407.03
2019-02-15T05:26:05.617Z,407.44
2019-02-15T05:27:05.626Z,407.02
2019-02-15T05:28:05.595Z,407.73
2019-02-15T05:29:05.583Z,407.38
2019-02-15T05:30:05.570Z,407.63
2019-02-15T05:31:05.554Z,408.44
2019-02-15T05:32:05.564Z,407.50
2019-02-15T05:33:05.532Z,408.61
2019-02-15T05:34:05.517Z,407.92
2019-02-15T05:35:05.510Z,409.47
2019-02-15T05:36:05.493Z,408.10
2019-02-15T05:37:05.511Z,408.45
2019-02-15T05:38:05.478Z,408.29
2019-02-15T05:39:05.470Z,408.55
2019-02-15T05:40:05.459Z,408.96
2019-02-15T05:41:05.457Z,408.88
2019-02-15T05:42:05.433Z,408.84
2019-02-15T05:43:05.439Z,408.37
2019-02-15T05:44:05.413Z,408.67
2019-02-15T05:45:05.427Z,408.76
2019-02-15T05:46:05.397Z,408.52
2019-02-15T05:47:05.387Z,409.47
2019-02-15T05:48:05.384Z,410.22
2019-02-15T05:49:05.355Z,409.90
2019-02-15T05:50:05.358Z,408.82
2019-02-15T05:51:05.346Z,409.92
2019-02-15T05:52:05.334Z,409.35
2019-02-15T05:53:05.342Z,409.41
2019-02-15T05:54:05.321Z,409.38
2019-02-15T05:55:05.299Z,410.43
2019-02-15T05:56:05.279Z,410.51
2019-02-15T05:57:05.265Z,410.26
2019-02-15T05:58:05.318Z,410.73
2019-02-15T05:59:05.277Z,410.67
2019-02-15T06:00:05.245Z,411.41
2019-02-15T06:01:05.236Z,413.03
2019-02-15T06:02:05.218Z,413.41
2019-02-15T06:03:05.239Z,412.25
2019-02-15T06:04:05.209Z,411.35
2019-02-15T06:05:05.197Z,411.28
2019-02-15T06:06:05.170Z,410.96
2019-02-15T06:07:05.165Z,411.85
2019-02-15T06:08:05.165Z,410.46
2019-02-15T06:09:05.145Z,410.30
2019-02-15T06:10:05.143Z,410.26
2019-02-15T06:11:07.964Z,410.96
2019-02-15T06:12:05.114Z,410.25
2019-02-15T06:13:05.124Z,411.00
2019-02-15T06:14:05.090Z,410.39
2019-02-15T06:15:14.721Z,410.90
2019-02-15T06:16:06.059Z,411.23
2019-02-15T06:17:05.051Z,411.34
2019-02-15T06:18:05.062Z,410.05
2019-02-15T06:19:05.060Z,411.15
2019-02-15T06:20:05.009Z,411.42
2019-02-15T06:21:05.014Z,410.60
2019-02-15T06:22:05.005Z,411.63
2019-02-15T06:23:04.994Z,410.96
2019-02-15T06:24:05.009Z,410.38
2019-02-15T06:25:04.979Z,410.92
2019-02-15T06:26:04.972Z,410.42
2019-02-15T06:27:04.948Z,409.75
2019-02-15T06:28:04.933Z,410.12
2019-02-15T06:29:04.941Z,410.71
2019-02-15T06:30:04.919Z,411.05
2019-02-15T06:31:04.910Z,411.01
2019-02-15T06:32:04.901Z,410.22
2019-02-15T06:33:04.887Z,410.62
2019-02-15T06:34:04.882Z,410.41
2019-02-15T06:35:04.850Z,409.92
2019-02-15T06:36:04.853Z,410.38
2019-02-15T06:37:04.839Z,409.95
2019-02-15T06:38:04.818Z,411.19
2019-02-15T06:39:04.854Z,410.31
2019-02-15T06:40:04.796Z,410.55
2019-02-15T06:41:04.790Z,410.64
2019-02-15T06:42:04.793Z,410.06
2019-02-15T06:43:04.779Z,410.30
2019-02-15T06:44:04.802Z,410.75
2019-02-15T06:45:04.753Z,410.61
2019-02-15T06:46:04.733Z,410.90
2019-02-15T06:47:04.718Z,410.71
2019-02-15T06:48:04.713Z,410.71
2019-02-15T06:49:04.698Z,410.87
2019-02-15T06:50:04.719Z,412.07
2019-02-15T06:51:04.684Z,411.35
2019-02-15T06:52:04.681Z,411.88
2019-02-15T06:53:04.657Z,410.86
2019-02-15T06:54:04.674Z,411.42
2019-02-15T06:55:04.642Z,410.62
2019-02-15T06:56:04.652Z,411.57
2019-02-15T06:57:04.627Z,411.66
2019-02-15T06:58:04.605Z,411.75
2019-02-15T06:59:04.609Z,412.04
2019-02-15T07:00:04.581Z,411.79
2019-02-15T07:01:04.593Z,412.23
2019-02-15T07:02:04.579Z,411.65
2019-02-15T07:03:04.561Z,411.88
2019-02-15T07:04:04.548Z,411.88
2019-02-15T07:05:04.538Z,411.48
2019-02-15T07:06:04.547Z,411.83
2019-02-15T07:07:04.509Z,412.12
2019-02-15T07:08:04.509Z,412.08
2019-02-15T07:09:04.504Z,412.33
2019-02-15T07:10:04.476Z,411.58
2019-02-15T07:11:04.460Z,411.23
2019-02-15T07:12:04.469Z,411.81
2019-02-15T07:13:04.462Z,412.64
2019-02-15T07:14:04.437Z,411.42
2019-02-15T07:15:04.435Z,412.18
2019-02-15T07:16:04.420Z,411.63
2019-02-15T07:17:04.403Z,412.40
2019-02-15T07:18:04.409Z,410.91
2019-02-15T07:19:04.374Z,411.58
2019-02-15T07:20:04.369Z,411.72
2019-02-15T07:21:04.364Z,413.93
2019-02-15T07:22:04.383Z,411.88
2019-02-15T07:23:04.343Z,410.69
2019-02-15T07:24:04.319Z,411.69
2019-02-15T07:25:04.316Z,411.97
2019-02-15T07:26:04.306Z,411.59
2019-02-15T07:27:04.298Z,411.02
2019-02-15T07:28:04.314Z,411.49
2019-02-15T07:29:04.275Z,410.73
2019-02-15T07:30:04.277Z,411.24
2019-02-15T07:31:04.240Z,411.64
2019-02-15T07:32:04.237Z,410.84
2019-02-15T07:33:04.250Z,411.46
2019-02-15T07:34:04.238Z,412.70
2019-02-15T07:35:04.212Z,411.25
2019-02-15T07:36:04.212Z,411.67
2019-02-15T07:37:04.184Z,411.13
2019-02-15T07:38:04.193Z,411.73
2019-02-15T07:39:04.157Z,410.84
2019-02-15T07:40:04.154Z,411.51
2019-02-15T07:41:04.142Z,410.10
2019-02-15T07:42:04.126Z,409.20
2019-02-15T07:43:04.112Z,409.08
2019-02-15T07:44:04.127Z,409.52
2019-02-15T07:45:04.103Z,409.03
2019-02-15T07:46:04.090Z,409.14
2019-02-15T07:47:04.081Z,409.59
2019-02-15T07:48:04.085Z,413.58
2019-02-15T07:49:04.057Z,409.93
2019-02-15T07:50:04.031Z,407.98
2019-02-15T07:51:09.665Z,407.62
2019-02-15T07:52:05.019Z,407.80
2019-02-15T07:53:04.034Z,408.56
2019-02-15T07:54:03.998Z,408.51
2019-02-15T07:55:03.996Z,410.71
2019-02-15T07:56:03.970Z,407.95
2019-02-15T07:57:03.953Z,409.06
2019-02-15T07:58:03.963Z,412.29
2019-02-15T07:59:04.024Z,409.36
2019-02-15T08:00:03.934Z,410.01
2019-02-15T08:01:03.940Z,410.48
2019-02-15T08:02:03.905Z,411.88
2019-02-15T08:03:03.946Z,411.60
2019-02-15T08:04:03.911Z,405.37
2019-02-15T08:05:03.875Z,408.74
2019-02-15T08:06:03.864Z,408.20
2019-02-15T08:07:03.944Z,404.69
2019-02-15T08:08:03.846Z,405.22
2019-02-15T08:09:03.987Z,407.32
2019-02-15T08:10:03.835Z,410.36
2019-02-15T08:11:03.813Z,409.69
2019-02-15T08:12:03.802Z,405.91
2019-02-15T08:13:03.779Z,400.26
2019-02-15T08:14:03.768Z,406.17
2019-02-15T08:15:03.787Z,406.52
2019-02-15T08:16:03.744Z,411.36
2019-02-15T08:17:03.729Z,406.91
2019-02-15T08:18:03.732Z,404.21
2019-02-15T08:19:03.717Z,408.66
2019-02-15T08:20:03.708Z,401.43
2019-02-15T08:21:03.718Z,402.67
2019-02-15T08:22:03.693Z,411.17
2019-02-15T08:23:03.683Z,403.77
2019-02-15T08:24:03.654Z,402.07
2019-02-15T08:25:03.653Z,407.82
2019-02-15T08:26:03.665Z,402.75
2019-02-15T08:27:03.638Z,402.17
2019-02-15T08:28:03.619Z,400.13
2019-02-15T08:29:03.607Z,410.43
2019-02-15T08:30:03.601Z,401.96
2019-02-15T08:31:03.603Z,406.75
2019-02-15T08:32:03.575Z,403.77
2019-02-15T08:33:03.582Z,403.45
2019-02-15T08:34:03.540Z,399.16
2019-02-15T08:35:03.536Z,405.76
2019-02-15T08:36:03.521Z,403.48
2019-02-15T08:37:03.514Z,402.10
2019-02-15T08:38:03.523Z,402.92
2019-02-15T08:39:03.496Z,403.04
2019-02-15T08:40:03.492Z,409.95
2019-02-15T08:41:03.515Z,395.83
2019-02-15T08:42:04.606Z,410.06
2019-02-15T08:43:03.447Z,393.80
2019-02-15T08:44:03.445Z,411.71
2019-02-15T08:45:03.440Z,401.94
2019-02-15T08:46:03.521Z,403.07
2019-02-15T08:47:03.426Z,398.45
2019-02-15T08:48:03.399Z,404.44
2019-02-15T08:49:03.385Z,405.11
2019-02-15T08:50:03.385Z,410.67
2019-02-15T08:51:03.362Z,405.84
2019-02-15T08:52:03.381Z,407.72
2019-02-15T08:53:03.346Z,396.33
2019-02-15T08:54:03.326Z,401.30
2019-02-15T08:55:03.342Z,405.57
2019-02-15T08:56:03.311Z,389.96
2019-02-15T08:57:03.298Z,404.18
2019-02-15T08:58:03.310Z,406.84
2019-02-15T08:59:03.289Z,412.89
2019-02-15T09:00:03.280Z,408.13
2019-02-15T09:01:03.250Z,403.49
2019-02-15T09:02:03.252Z,397.06
2019-02-15T09:03:03.260Z,394.60
2019-02-15T09:04:03.227Z,397.35
2019-02-15T09:05:03.228Z,405.43
2019-02-15T09:06:03.220Z,403.03
2019-02-15T09:07:03.193Z,396.94
2019-02-15T09:08:03.193Z,402.15
2019-02-15T09:09:03.169Z,407.28
2019-02-15T09:10:03.158Z,389.52
2019-02-15T09:11:03.167Z,401.82
2019-02-15T09:12:03.191Z,411.01
2019-02-15T09:13:03.150Z,406.27
2019-02-15T09:14:03.111Z,401.67
2019-02-15T09:15:03.099Z,409.42
2019-02-15T09:16:09.990Z,397.91
2019-02-15T09:17:04.084Z,403.05
2019-02-15T09:18:03.078Z,403.39
2019-02-15T09:19:03.054Z,394.98
2019-02-15T09:20:03.037Z,401.05
2019-02-15T09:21:03.034Z,396.69
2019-02-15T09:22:03.031Z,395.36
2019-02-15T09:23:03.055Z,386.38
2019-02-15T09:24:03.013Z,405.65
2019-02-15T09:25:03.001Z,383.39
2019-02-15T09:26:02.978Z,395.21
2019-02-15T09:27:02.973Z,402.94
2019-02-15T09:28:02.958Z,394.89
2019-02-15T09:29:02.964Z,392.22
2019-02-15T09:30:02.945Z,402.29
2019-02-15T09:31:02.938Z,388.62
2019-02-15T09:32:02.963Z,387.26
2019-02-15T09:33:02.908Z,386.14
2019-02-15T09:34:02.916Z,394.06
2019-02-15T09:35:02.896Z,397.91
2019-02-15T09:36:02.885Z,391.60
2019-02-15T09:37:02.945Z,410.25
2019-02-15T09:38:02.856Z,396.58
2019-02-15T09:39:02.866Z,393.69
2019-02-15T09:40:02.838Z,391.21
2019-02-15T09:41:02.830Z,388.25
2019-02-15T09:42:02.810Z,391.69
2019-02-15T09:43:02.802Z,396.87
2019-02-15T09:44:02.808Z,400.77
2019-02-15T09:45:02.775Z,389.25
2019-02-15T09:46:02.771Z,395.62
2019-02-15T09:47:02.825Z,406.71
2019-02-15T09:48:02.751Z,388.09
2019-02-15T09:49:02.771Z,393.38
2019-02-15T09:50:02.750Z,383.04
2019-02-15T09:51:02.706Z,379.77
2019-02-15T09:52:02.720Z,389.77
2019-02-15T09:53:02.684Z,392.94
2019-02-15T09:54:02.708Z,379.32
2019-02-15T09:55:02.678Z,391.03
2019-02-15T09:56:02.672Z,395.58
2019-02-15T09:57:02.644Z,388.53
2019-02-15T09:58:02.636Z,392.56
2019-02-15T09:59:02.635Z,394.38
2019-02-15T10:00:02.646Z,395.58
2019-02-15T10:01:02.638Z,387.71
2019-02-15T10:02:02.603Z,399.83
2019-02-15T10:03:02.583Z,391.43
2019-02-15T10:04:02.572Z,389.69
2019-02-15T10:05:02.597Z,391.11
2019-02-15T10:06:02.551Z,393.72
2019-02-15T10:07:02.548Z,393.44
2019-02-15T10:08:02.536Z,378.12
2019-02-15T10:09:02.535Z,402.09
2019-02-15T10:10:02.518Z,394.53
2019-02-15T10:11:02.521Z,397.46
2019-02-15T10:12:02.588Z,401.99
2019-02-15T10:13:02.495Z,388.41
2019-02-15T10:14:02.476Z,385.71
2019-02-15T10:15:02.459Z,375.45
2019-02-15T10:16:02.451Z,384.09
2019-02-15T10:17:02.459Z,392.70
2019-02-15T10:18:02.433Z,385.34
2019-02-15T10:19:02.433Z,361.97
2019-02-15T10:20:02.411Z,397.41
2019-02-15T10:21:02.411Z,393.15
2019-02-15T10:22:02.423Z,382.70
2019-02-15T10:23:02.374Z,381.59
2019-02-15T10:24:02.390Z,398.12
2019-02-15T10:25:02.344Z,399.12
2019-02-15T10:26:02.341Z,392.48
2019-02-15T10:27:02.362Z,379.09
2019-02-15T10:28:02.351Z,391.78
2019-02-15T10:29:02.306Z,392.24
2019-02-15T10:30:02.648Z,381.88
2019-02-15T10:31:02.298Z,411.15
2019-02-15T10:32:02.290Z,391.29
2019-02-15T10:33:02.320Z,403.77
2019-02-15T10:34:02.275Z,383.06
2019-02-15T10:35:02.249Z,386.86
2019-02-15T10:36:02.241Z,385.32
2019-02-15T10:37:02.245Z,394.89
2019-02-15T10:38:02.221Z,385.04
2019-02-15T10:39:02.243Z,397.32
2019-02-15T10:40:02.211Z,394.00
2019-02-15T10:41:02.192Z,401.00
2019-02-15T10:42:02.178Z,398.50
2019-02-15T10:43:02.161Z,394.10
2019-02-15T10:44:02.184Z,391.03
2019-02-15T10:45:02.156Z,392.67
2019-02-15T10:46:02.141Z,407.98
2019-02-15T10:47:02.127Z,392.47
2019-02-15T10:48:02.114Z,395.82
2019-02-15T10:49:02.100Z,394.41
2019-02-15T10:50:02.121Z,400.29
2019-02-15T10:51:02.092Z,406.98
2019-02-15T10:52:02.083Z,383.40
2019-02-15T10:53:02.072Z,392.96
2019-02-15T10:54:02.056Z,388.54
2019-02-15T10:55:02.056Z,398.16
2019-02-15T10:56:02.041Z,375.69
2019-02-15T10:57:02.013Z,390.95
2019-02-15T10:58:02.018Z,394.37
2019-02-15T10:59:02.031Z,393.11
2019-02-15T11:00:02.017Z,384.63
2019-02-15T11:01:01.990Z,403.43
2019-02-15T11:02:01.970Z,374.55
2019-02-15T11:03:01.967Z,396.30
2019-02-15T11:04:01.953Z,401.87
2019-02-15T11:05:01.968Z,409.29
2019-02-15T11:06:01.957Z,394.46
2019-02-15T11:07:01.909Z,394.25
2019-02-15T11:08:01.919Z,388.04
2019-02-15T11:09:01.903Z,396.78
2019-02-15T11:10:01.888Z,393.40
2019-02-15T11:11:01.903Z,399.26
2019-02-15T11:12:01.877Z,414.42
2019-02-15T11:13:01.878Z,388.78
2019-02-15T11:14:01.851Z,390.42
2019-02-15T11:15:01.880Z,394.69
2019-02-15T11:16:01.840Z,401.19
2019-02-15T11:17:03.194Z,392.45
2019-02-15T11:18:01.815Z,386.38
2019-02-15T11:19:01.783Z,380.01
2019-02-15T11:20:01.773Z,389.69
2019-02-15T11:21:01.791Z,398.86
2019-02-15T11:22:01.755Z,403.42
2019-02-15T11:23:01.755Z,399.29
2019-02-15T11:24:01.749Z,392.89
2019-02-15T11:25:01.736Z,413.24
2019-02-15T11:26:01.721Z,392.50
2019-02-15T11:27:01.725Z,402.02
2019-02-15T11:28:01.701Z,398.85
2019-02-15T11:29:01.681Z,405.97
2019-02-15T11:30:01.666Z,403.84
2019-02-15T11:31:01.695Z,388.43
2019-02-15T11:32:01.679Z,398.88
2019-02-15T11:33:01.643Z,390.33
2019-02-15T11:34:01.628Z,370.06
2019-02-15T11:35:01.642Z,409.53
2019-02-15T11:36:01.649Z,394.61
2019-02-15T11:37:01.609Z,395.70
2019-02-15T11:38:01.616Z,411.79
2019-02-15T11:39:01.587Z,394.09
2019-02-15T11:40:01.574Z,398.41
2019-02-15T11:41:10.728Z,396.36
2019-02-15T11:42:02.578Z,397.18
2019-02-15T11:43:01.549Z,397.62
2019-02-15T11:44:01.533Z,388.05
2019-02-15T11:45:01.526Z,388.80
2019-02-15T11:46:01.518Z,396.66
2019-02-15T11:47:01.491Z,401.90
2019-02-15T11:48:01.514Z,400.88
2019-02-15T11:49:01.482Z,395.17
2019-02-15T11:50:01.467Z,396.58
2019-02-15T11:51:01.451Z,391.73
2019-02-15T11:52:01.435Z,391.34
2019-02-15T11:53:01.468Z,392.88
2019-02-15T11:54:01.418Z,398.28
2019-02-15T11:55:01.415Z,398.64
2019-02-15T11:56:01.407Z,393.47
2019-02-15T11:57:01.394Z,402.03
2019-02-15T11:58:01.387Z,381.85
2019-02-15T11:59:01.391Z,397.38
2019-02-15T12:00:01.359Z,398.62
2019-02-15T12:01:01.349Z,396.33
2019-02-15T12:02:06.224Z,398.95
2019-02-15T12:03:02.350Z,398.10
2019-02-15T12:04:01.355Z,401.26
2019-02-15T12:05:01.304Z,401.25
2019-02-15T12:06:01.291Z,411.05
2019-02-15T12:07:01.287Z,406.68
2019-02-15T12:08:01.279Z,409.14
2019-02-15T12:09:01.302Z,415.21
2019-02-15T12:10:01.257Z,408.99
2019-02-15T12:11:01.238Z,414.94
2019-02-15T12:12:10.135Z,407.04
2019-02-15T12:13:02.216Z,404.01
2019-02-15T12:14:01.211Z,401.96
2019-02-15T12:15:01.237Z,404.54
2019-02-15T12:16:01.189Z,404.50
2019-02-15T12:17:05.612Z,398.24
2019-02-15T12:18:01.173Z,401.21
2019-02-15T12:19:01.151Z,412.62
2019-02-15T12:20:01.169Z,408.43
2019-02-15T12:21:01.136Z,411.40
2019-02-15T12:22:01.123Z,402.86
2019-02-15T12:23:01.113Z,411.74
2019-02-15T12:24:01.101Z,407.46
2019-02-15T12:25:01.083Z,410.51
2019-02-15T12:26:01.087Z,410.80
2019-02-15T12:27:01.073Z,415.93
2019-02-15T12:28:01.058Z,403.07